Time;durP1;ratioP1;P1;durP2;ratioP2;P2;SDS_P1;SDS_P2;PMS_P1;PMS_P2;Temp;Humidity;BMP_temperature;BMP_pressure;BME280_temperature;BME280_humidity;BME280_pressure;Samples;Min_cycle;Max_cycle;Signal;HPM_P1;HPM_P2
2021/05/18 00:01:44;;;;;;;24.67;15.70;;;13.10;99.90;;;;;;4961337;28;20098;-81
2021/05/18 00:04:10;;;;;;;21.17;14.32;;;13.10;99.90;;;;;;4963578;28;20175;-81
2021/05/18 00:06:36;;;;;;;21.38;15.32;;;13.20;99.90;;;;;;4964031;28;20128;-83
2021/05/18 00:11:47;;;;;;;24.90;14.27;;;13.30;99.90;;;;;;4959252;28;20046;-84
2021/05/18 00:14:15;;;;;;;24.75;15.35;;;13.20;99.90;;;;;;4960058;28;20407;-84
2021/05/18 00:16:41;;;;;;;19.52;13.05;;;13.20;99.90;;;;;;4964655;28;20018;-80
2021/05/18 00:19:07;;;;;;;21.42;14.35;;;13.20;99.90;;;;;;4970516;28;20045;-80
2021/05/18 00:21:33;;;;;;;20.35;13.82;;;13.20;99.90;;;;;;4970434;28;20030;-84
2021/05/18 00:24:00;;;;;;;17.95;13.13;;;13.20;99.90;;;;;;4971053;28;20082;-85
2021/05/18 00:26:26;;;;;;;23.00;14.35;;;13.20;99.90;;;;;;4971283;28;20058;-79
2021/05/18 00:28:51;;;;;;;23.08;15.65;;;13.30;99.90;;;;;;4962284;28;20018;-84
2021/05/18 00:31:17;;;;;;;19.73;13.13;;;13.30;99.90;;;;;;4963121;28;20444;-83
2021/05/18 00:33:43;;;;;;;21.40;15.00;;;13.30;99.90;;;;;;4961522;28;20030;-83
2021/05/18 00:36:09;;;;;;;20.73;14.40;;;13.30;99.90;;;;;;4967406;28;20031;-77
2021/05/18 00:38:36;;;;;;;16.73;12.85;;;13.30;99.90;;;;;;4972241;28;20031;-84
2021/05/18 00:41:02;;;;;;;17.95;13.98;;;13.40;99.90;;;;;;4972074;28;20519;-82
2021/05/18 00:43:28;;;;;;;19.63;13.52;;;13.40;99.90;;;;;;4973279;28;20061;-84
2021/05/18 00:45:54;;;;;;;17.60;12.23;;;13.30;99.90;;;;;;4971974;28;20046;-83
2021/05/18 00:48:21;;;;;;;18.70;12.20;;;13.30;99.90;;;;;;4971753;28;20037;-82
2021/05/18 00:51:03;;;;;;;16.98;12.98;;;13.30;99.90;;;;;;4970679;28;20033;-83
2021/05/18 00:53:29;;;;;;;17.75;11.10;;;13.30;99.90;;;;;;4971489;28;20029;-85
2021/05/18 00:56:02;;;;;;;16.92;12.30;;;13.40;99.90;;;;;;4973181;28;20031;-83
2021/05/18 00:58:37;;;;;;;17.33;13.07;;;13.40;99.90;;;;;;4973829;28;20047;-86
2021/05/18 01:01:16;;;;;;;20.35;12.48;;;13.40;99.90;;;;;;4974332;28;20007;-84
2021/05/18 01:03:43;;;;;;;19.15;12.75;;;13.40;99.90;;;;;;4972457;28;20057;-84
2021/05/18 01:06:28;;;;;;;21.45;14.57;;;13.40;99.90;;;;;;4975688;28;20014;-82
2021/05/18 01:09:01;;;;;;;20.95;13.13;;;13.30;99.90;;;;;;4970443;28;20388;-79
2021/05/18 01:11:31;;;;;;;19.13;12.88;;;13.40;99.90;;;;;;4962720;28;20031;-84
2021/05/18 01:14:00;;;;;;;20.70;13.90;;;13.40;99.90;;;;;;4962536;28;20027;-80
2021/05/18 01:16:28;;;;;;;18.15;13.15;;;13.40;99.90;;;;;;4967373;28;20030;-87
2021/05/18 01:18:54;;;;;;;19.42;13.57;;;13.40;99.90;;;;;;4965972;28;20027;-85
2021/05/18 01:21:25;;;;;;;17.40;12.70;;;13.30;99.90;;;;;;4958751;28;20058;-86
2021/05/18 01:23:52;;;;;;;18.55;13.30;;;13.40;99.90;;;;;;4957628;28;20031;-86
2021/05/18 01:26:18;;;;;;;19.45;13.25;;;13.40;99.90;;;;;;4960681;28;20024;-86
2021/05/18 01:28:44;;;;;;;22.90;12.68;;;13.40;99.90;;;;;;4956336;28;20023;-85
2021/05/18 01:31:13;;;;;;;17.52;11.55;;;13.40;99.90;;;;;;4960720;28;20038;-86
2021/05/18 01:33:39;;;;;;;16.98;11.35;;;13.40;99.90;;;;;;4963653;28;20066;-83
2021/05/18 01:36:11;;;;;;;16.42;11.48;;;13.40;99.90;;;;;;4959416;28;20023;-86
2021/05/18 01:44:08;;;;;;;15.40;11.13;;;13.30;99.90;;;;;;4958003;28;20392;-79
2021/05/18 01:46:34;;;;;;;17.20;12.15;;;13.30;99.90;;;;;;4960436;28;20019;-86
2021/05/18 01:49:02;;;;;;;21.42;12.68;;;13.30;99.90;;;;;;4958691;28;20499;-85
2021/05/18 01:51:30;;;;;;;19.23;12.63;;;13.30;99.90;;;;;;4962828;28;20037;-86
2021/05/18 01:53:58;;;;;;;24.73;13.27;;;13.30;99.90;;;;;;4957344;28;20031;-84
2021/05/18 01:59:14;;;;;;;24.35;14.75;;;13.30;99.90;;;;;;4956351;28;20516;-82
2021/05/18 02:01:42;;;;;;;21.15;12.60;;;13.30;99.90;;;;;;4959888;28;20090;-85
2021/05/18 02:04:08;;;;;;;24.65;14.18;;;13.20;99.90;;;;;;4957239;28;20027;-82
2021/05/18 02:06:35;;;;;;;21.23;13.65;;;13.30;99.90;;;;;;4965476;28;20050;-85
2021/05/18 02:09:04;;;;;;;23.38;12.77;;;13.30;99.90;;;;;;4959300;28;20666;-83
2021/05/18 02:11:31;;;;;;;29.90;14.82;;;13.30;99.90;;;;;;4962795;28;20035;-84
2021/05/18 02:13:59;;;;;;;18.55;13.02;;;13.20;99.90;;;;;;4972470;28;20221;-81
2021/05/18 02:16:32;;;;;;;19.67;12.10;;;13.20;99.90;;;;;;4972388;28;20056;-84
2021/05/18 02:25:01;;;;;;;21.88;13.18;;;13.20;99.90;;;;;;4978540;28;20027;-84
2021/05/18 02:27:28;;;;;;;25.40;13.82;;;13.30;99.90;;;;;;4978961;28;20447;-83
2021/05/18 02:29:55;;;;;;;22.83;13.00;;;13.30;99.90;;;;;;4976609;28;20053;-83
2021/05/18 02:32:23;;;;;;;24.33;14.10;;;13.20;99.90;;;;;;4972561;28;20360;-82
2021/05/18 02:34:48;;;;;;;26.60;14.32;;;13.20;99.90;;;;;;4977968;28;20014;-82
2021/05/18 02:37:14;;;;;;;26.35;13.73;;;13.20;99.90;;;;;;4975281;28;20364;-79
2021/05/18 02:39:40;;;;;;;26.42;13.60;;;13.30;99.90;;;;;;4973320;28;20046;-78
2021/05/18 02:42:06;;;;;;;19.48;12.23;;;13.30;99.90;;;;;;4978212;28;20026;-78
2021/05/18 02:49:44;;;;;;;22.00;13.18;;;13.20;99.90;;;;;;4974590;28;20085;-80
2021/05/18 02:52:10;;;;;;;27.60;15.00;;;13.20;99.90;;;;;;4978264;28;20058;-79
2021/05/18 02:54:36;;;;;;;24.02;13.65;;;13.20;99.90;;;;;;4981041;28;20408;-79
2021/05/18 02:57:05;;;;;;;27.35;15.43;;;13.20;99.90;;;;;;4974579;28;20057;-76
2021/05/18 02:59:31;;;;;;;19.63;13.23;;;13.20;99.90;;;;;;4978071;28;20395;-80
2021/05/18 03:01:59;;;;;;;26.02;13.35;;;13.30;99.90;;;;;;4963230;28;20037;-80
2021/05/18 03:04:26;;;;;;;25.65;14.30;;;13.30;99.90;;;;;;4972143;28;20069;-78
2021/05/18 03:06:52;;;;;;;27.25;14.02;;;13.30;99.90;;;;;;4975104;28;20014;-81
2021/05/18 03:09:19;;;;;;;26.10;14.27;;;13.30;99.90;;;;;;4969615;28;20027;-82
2021/05/18 03:11:47;;;;;;;25.50;13.00;;;13.30;99.90;;;;;;4974193;28;20027;-81
2021/05/18 03:14:14;;;;;;;30.40;13.73;;;13.30;99.90;;;;;;4974533;28;20026;-82
2021/05/18 03:16:41;;;;;;;25.17;13.50;;;13.30;99.90;;;;;;4974279;28;20129;-82
2021/05/18 03:19:09;;;;;;;25.83;13.35;;;13.30;99.90;;;;;;4974055;28;20031;-81
2021/05/18 03:21:35;;;;;;;32.30;15.43;;;13.20;99.90;;;;;;4973227;28;20443;-83
2021/05/18 03:24:01;;;;;;;32.58;14.38;;;13.30;99.90;;;;;;4968104;28;20027;-82
2021/05/18 03:26:27;;;;;;;27.05;13.75;;;13.30;99.90;;;;;;4973402;28;20027;-83
2021/05/18 03:28:59;;;;;;;28.73;14.60;;;13.30;99.90;;;;;;4969520;28;20424;-83
2021/05/18 03:36:56;;;;;;;31.15;14.43;;;13.30;99.90;;;;;;4972096;28;20033;-83
2021/05/18 03:39:23;;;;;;;30.77;14.45;;;13.30;99.90;;;;;;4973679;28;20043;-83
2021/05/18 03:42:08;;;;;;;30.50;14.93;;;13.30;99.90;;;;;;4976677;28;20079;-83
2021/05/18 03:52:31;;;;;;;30.48;14.90;;;13.30;99.90;;;;;;4979140;28;20415;-83
2021/05/18 04:18:26;;;;;;;28.23;15.82;;;13.30;99.90;;;;;;4976515;28;20085;-81
2021/05/18 05:00:55;;;;;;;29.88;17.52;;;13.30;99.90;;;;;;4978915;28;20033;-85
2021/05/18 05:09:19;;;;;;;36.47;18.90;;;13.40;99.90;;;;;;4936932;28;20061;-84
2021/05/18 05:14:29;;;;;;;43.97;21.55;;;13.40;99.90;;;;;;4975116;28;20053;-85
2021/05/18 05:16:55;;;;;;;40.53;19.95;;;13.40;99.90;;;;;;4980357;28;20046;-85
2021/05/18 05:19:21;;;;;;;39.33;19.70;;;13.50;99.90;;;;;;4979775;28;20452;-83
2021/05/18 05:21:47;;;;;;;42.67;21.42;;;13.50;99.90;;;;;;4976647;28;20037;-84
2021/05/18 05:24:13;;;;;;;47.75;22.73;;;13.50;99.90;;;;;;4975858;28;20030;-83
2021/05/18 05:26:40;;;;;;;47.40;21.80;;;13.60;99.90;;;;;;4972986;28;20018;-84
2021/05/18 05:29:07;;;;;;;49.28;21.42;;;13.50;99.90;;;;;;4978730;28;20046;-85
2021/05/18 05:31:33;;;;;;;42.25;23.45;;;13.50;99.90;;;;;;4975044;28;20023;-86
2021/05/18 05:34:00;;;;;;;40.25;23.23;;;13.50;99.90;;;;;;4974741;28;20069;-81
2021/05/18 05:36:26;;;;;;;40.40;21.42;;;13.50;99.90;;;;;;4981496;28;20022;-84
2021/05/18 05:38:58;;;;;;;58.35;25.95;;;13.60;99.90;;;;;;4979913;28;20070;-85
2021/05/18 05:41:24;;;;;;;56.95;25.58;;;13.60;99.90;;;;;;4973934;28;20019;-86
2021/05/18 05:43:50;;;;;;;55.20;26.05;;;13.60;99.90;;;;;;4977408;28;20026;-85
2021/05/18 05:46:15;;;;;;;51.83;27.52;;;13.60;99.90;;;;;;4975957;28;20101;-87
2021/05/18 05:48:41;;;;;;;48.85;28.55;;;13.60;99.90;;;;;;4981356;28;20026;-88
2021/05/18 05:51:06;;;;;;;51.00;27.38;;;13.60;99.90;;;;;;4969893;28;20447;-86
2021/05/18 05:53:32;;;;;;;47.28;29.10;;;13.60;99.90;;;;;;4974352;28;20365;-86
2021/05/18 05:55:58;;;;;;;53.28;30.70;;;13.60;99.90;;;;;;4978714;28;20047;-85
2021/05/18 05:58:24;;;;;;;52.28;29.90;;;13.70;99.90;;;;;;4982643;28;20014;-81
2021/05/18 06:00:50;;;;;;;47.67;29.15;;;13.70;99.90;;;;;;4979072;28;20038;-87
2021/05/18 06:03:16;;;;;;;50.22;28.98;;;13.70;99.90;;;;;;4977437;28;20019;-88
2021/05/18 06:05:41;;;;;;;54.17;29.88;;;13.80;99.90;;;;;;4961553;28;20506;-75
2021/05/18 06:08:07;;;;;;;51.05;30.33;;;13.70;99.90;;;;;;4979160;28;20161;-77
2021/05/18 06:10:39;;;;;;;56.70;29.70;;;13.80;99.90;;;;;;4978202;28;20364;-82
2021/05/18 06:35:23;;;;;;;46.60;30.55;;;13.80;99.90;;;;;;4969834;28;20033;-76
2021/05/18 06:43:06;;;;;;;41.28;27.50;;;14.10;99.90;;;;;;4976645;28;20026;-85
2021/05/18 06:46:00;;;;;;;38.33;26.27;;;14.20;99.90;;;;;;4968410;28;20107;-84
2021/05/18 06:48:25;;;;;;;40.70;25.85;;;14.30;99.90;;;;;;4972163;28;20026;-74
2021/05/18 06:50:51;;;;;;;41.30;27.05;;;14.50;99.90;;;;;;4978315;28;20372;-85
2021/05/18 06:53:17;;;;;;;37.72;26.42;;;14.40;99.90;;;;;;4976583;28;20564;-77
2021/05/18 06:55:43;;;;;;;41.72;26.08;;;14.40;99.90;;;;;;4977259;28;20511;-83
2021/05/18 06:58:13;;;;;;;38.28;25.67;;;14.50;99.90;;;;;;4971903;28;20024;-81
2021/05/18 07:00:41;;;;;;;35.72;25.90;;;14.60;99.90;;;;;;4958315;28;20031;-76
2021/05/18 07:03:13;;;;;;;38.17;24.42;;;14.60;99.90;;;;;;4968565;28;20015;-81
2021/05/18 07:10:30;;;;;;;34.30;23.27;;;14.60;99.90;;;;;;4978638;28;20174;-81
2021/05/18 07:12:56;;;;;;;33.25;23.17;;;14.60;99.90;;;;;;4972155;28;20484;-79
2021/05/18 07:15:22;;;;;;;30.20;21.85;;;14.60;99.90;;;;;;4976522;28;20038;-78
2021/05/18 07:17:48;;;;;;;35.20;23.15;;;14.60;99.90;;;;;;4975299;28;20186;-77
2021/05/18 07:20:13;;;;;;;31.77;22.95;;;14.60;99.90;;;;;;4969975;28;20042;-77
2021/05/18 07:22:39;;;;;;;31.60;23.13;;;14.50;99.90;;;;;;4971881;28;20031;-77
2021/05/18 07:25:05;;;;;;;28.40;22.65;;;14.50;99.90;;;;;;4974785;28;20070;-76
2021/05/18 07:27:31;;;;;;;28.90;21.88;;;14.40;99.90;;;;;;4969424;28;20034;-76
2021/05/18 07:29:56;;;;;;;27.45;20.58;;;14.50;99.90;;;;;;4977440;28;20027;-77
2021/05/18 07:32:22;;;;;;;33.55;24.85;;;14.40;99.90;;;;;;4976868;28;20467;-82
2021/05/18 07:34:50;;;;;;;29.00;20.88;;;14.40;99.90;;;;;;4975805;28;20093;-79
2021/05/18 07:37:15;;;;;;;33.90;23.27;;;14.40;99.90;;;;;;4972874;28;20029;-82
2021/05/18 07:39:41;;;;;;;30.48;22.35;;;14.50;99.90;;;;;;4958522;28;20175;-86
2021/05/18 07:42:08;;;;;;;35.08;22.75;;;14.50;99.90;;;;;;4974112;28;20054;-77
2021/05/18 07:44:34;;;;;;;30.35;22.83;;;14.40;99.90;;;;;;4972584;28;20050;-85
2021/05/18 07:47:02;;;;;;;36.38;24.40;;;14.40;99.90;;;;;;4979476;28;20057;-81
2021/05/18 07:49:37;;;;;;;34.08;24.58;;;14.50;99.90;;;;;;4978384;28;20043;-86
2021/05/18 08:00:41;;;;;;;30.88;22.73;;;14.50;99.90;;;;;;4979983;28;20451;-73
2021/05/18 08:05:53;;;;;;;34.85;26.10;;;14.60;99.90;;;;;;4981936;28;20049;-75
2021/05/18 08:08:19;;;;;;;32.95;22.55;;;14.60;99.90;;;;;;4985595;28;20065;-83
2021/05/18 08:13:11;;;;;;;33.45;24.73;;;14.60;99.90;;;;;;4977533;28;20527;-89
2021/05/18 08:21:07;;;;;;;30.95;25.17;;;14.70;99.90;;;;;;4988284;28;20067;-83
2021/05/18 10:36:36;;;;;;;16.92;14.73;;;17.20;99.90;;;;;;4981272;28;20034;-75
2021/05/18 10:39:22;;;;;;;18.35;15.20;;;17.20;99.90;;;;;;4977622;28;20041;-74
2021/05/18 10:41:49;;;;;;;13.43;12.02;;;17.50;99.90;;;;;;4980050;28;20027;-75
2021/05/18 10:44:15;;;;;;;14.57;12.05;;;17.80;99.90;;;;;;4962022;28;20054;-75
2021/05/18 10:47:00;;;;;;;13.25;11.05;;;17.90;99.90;;;;;;4982392;28;20110;-75
2021/05/18 10:49:34;;;;;;;12.55;10.88;;;18.10;99.90;;;;;;4954796;28;20118;-76
2021/05/18 10:52:02;;;;;;;15.15;11.52;;;18.10;99.90;;;;;;4971542;28;20585;-76
2021/05/18 10:54:38;;;;;;;14.00;11.25;;;18.00;99.90;;;;;;4973630;28;20037;-75
2021/05/18 10:57:27;;;;;;;18.02;10.82;;;18.00;99.90;;;;;;4974955;28;20029;-74
2021/05/18 10:59:55;;;;;;;10.38;8.93;;;18.30;99.90;;;;;;4973158;28;20042;-76
2021/05/18 11:02:32;;;;;;;11.73;10.35;;;18.30;99.90;;;;;;4967951;28;20014;-74
2021/05/18 11:05:12;;;;;;;12.02;10.45;;;18.20;99.90;;;;;;4970923;28;20117;-75
2021/05/18 11:07:44;;;;;;;13.35;10.85;;;18.30;99.90;;;;;;4966192;28;20023;-73
2021/05/18 11:10:14;;;;;;;14.38;11.20;;;18.50;99.90;;;;;;4963414;28;20023;-73
2021/05/18 11:12:40;;;;;;;12.90;10.68;;;18.40;99.90;;;;;;4960077;28;20604;-73
2021/05/18 11:15:16;;;;;;;13.32;11.88;;;18.30;99.90;;;;;;4959436;28;20035;-73
2021/05/18 11:17:50;;;;;;;12.57;11.38;;;18.40;99.90;;;;;;4960443;28;20023;-72
2021/05/18 11:26:01;;;;;;;11.02;9.95;;;18.10;99.90;;;;;;4959759;28;20045;-72
2021/05/18 11:28:29;;;;;;;10.43;9.43;;;18.50;99.90;;;;;;4964306;28;20531;-72
2021/05/18 11:31:00;;;;;;;13.80;12.45;;;18.70;99.90;;;;;;4959493;28;20302;-71
2021/05/18 11:33:33;;;;;;;12.05;10.80;;;18.90;99.90;;;;;;4963627;28;20029;-71
2021/05/18 11:36:11;;;;;;;12.23;9.23;;;18.90;99.90;;;;;;4969024;28;20038;-71
2021/05/18 11:38:39;;;;;;;10.75;9.68;;;18.80;99.90;;;;;;4967369;28;20035;-71
2021/05/18 11:41:05;;;;;;;9.98;7.57;;;19.10;99.90;;;;;;4960191;28;20023;-71
2021/05/18 11:43:37;;;;;;;12.77;11.50;;;19.20;99.90;;;;;;4959668;28;20058;-71
2021/05/18 11:46:09;;;;;;;7.53;6.85;;;19.00;99.90;;;;;;4960959;28;20404;-71
2021/05/18 11:48:37;;;;;;;6.72;6.18;;;18.90;99.90;;;;;;4959412;28;20031;-71
2021/05/18 11:51:06;;;;;;;6.50;5.57;;;19.00;99.90;;;;;;4956959;28;20027;-72
2021/05/18 11:53:36;;;;;;;7.20;5.38;;;18.90;99.90;;;;;;4958478;28;20042;-71
2021/05/18 11:56:15;;;;;;;6.88;5.68;;;19.10;99.90;;;;;;4958994;28;20422;-71
2021/05/18 11:58:41;;;;;;;6.80;6.13;;;19.10;99.90;;;;;;4960970;28;20070;-71
2021/05/18 12:01:08;;;;;;;5.35;4.85;;;19.10;99.90;;;;;;4956654;28;20023;-72
2021/05/18 12:03:35;;;;;;;6.28;5.78;;;19.20;99.90;;;;;;4957856;28;20030;-71
2021/05/18 12:06:03;;;;;;;5.53;4.50;;;19.20;99.90;;;;;;4956023;28;20030;-71
2021/05/18 12:08:37;;;;;;;4.97;4.45;;;19.10;99.90;;;;;;4944111;28;20122;-72
2021/05/18 12:11:18;;;;;;;6.72;4.97;;;19.00;99.90;;;;;;4962046;28;20105;-72
2021/05/18 12:13:45;;;;;;;5.07;4.57;;;19.00;99.90;;;;;;4969026;28;20105;-71
2021/05/18 12:16:13;;;;;;;5.82;4.28;;;18.90;99.90;;;;;;4957407;28;20031;-71
2021/05/18 12:18:40;;;;;;;7.40;4.07;;;18.90;99.90;;;;;;4965445;28;20047;-72
2021/05/18 12:21:15;;;;;;;4.63;3.80;;;18.90;99.90;;;;;;4962222;28;20133;-72
2021/05/18 12:23:42;;;;;;;6.03;3.53;;;19.00;99.90;;;;;;4968185;28;20031;-72
2021/05/18 12:26:16;;;;;;;4.70;3.42;;;19.20;99.90;;;;;;4968386;28;20015;-72
2021/05/18 12:29:03;;;;;;;3.80;2.88;;;19.40;99.90;;;;;;4969831;28;20030;-72
2021/05/18 12:31:37;;;;;;;3.67;3.33;;;19.80;99.90;;;;;;4974362;28;20383;-71
2021/05/18 12:34:05;;;;;;;5.15;3.42;;;19.70;99.90;;;;;;4975166;28;20086;-71
2021/05/18 12:36:44;;;;;;;12.18;3.05;;;19.70;99.90;;;;;;4971575;28;20015;-73
2021/05/18 12:39:13;;;;;;;2.80;2.47;;;19.90;99.90;;;;;;4972841;28;20031;-73
2021/05/18 12:42:03;;;;;;;3.63;2.85;;;20.20;99.90;;;;;;4978353;28;20018;-73
2021/05/18 12:44:32;;;;;;;5.18;2.53;;;20.50;99.90;;;;;;4977330;28;20065;-73
2021/05/18 12:47:01;;;;;;;5.10;2.80;;;20.60;99.70;;;;;;4967046;28;20084;-74
2021/05/18 12:49:31;;;;;;;2.88;2.40;;;20.80;99.90;;;;;;4977153;28;20023;-72
2021/05/18 12:52:08;;;;;;;5.45;2.72;;;21.00;99.70;;;;;;4979842;28;20023;-74
2021/05/18 12:54:44;;;;;;;5.25;2.72;;;21.20;99.90;;;;;;4978057;28;20030;-73
2021/05/18 12:57:12;;;;;;;5.90;2.50;;;21.10;99.90;;;;;;4970879;28;20035;-73
2021/05/18 13:00:07;;;;;;;3.58;2.50;;;21.30;99.90;;;;;;4978526;28;20070;-72
2021/05/18 13:02:38;;;;;;;3.42;2.65;;;21.20;98.20;;;;;;4976512;28;20159;-72
2021/05/18 13:05:30;;;;;;;3.95;3.65;;;21.10;99.90;;;;;;4976357;28;20093;-74
2021/05/18 13:08:18;;;;;;;3.55;2.78;;;20.80;99.90;;;;;;4952142;28;20031;-71
2021/05/18 13:13:54;;;;;;;8.82;3.33;;;20.80;98.10;;;;;;4972532;28;20030;-73
2021/05/18 13:16:24;;;;;;;;;;;20.70;99.90;;;;;;4970394;28;20023;-73
2021/05/18 13:19:04;;;;;;;5.45;4.32;;;20.80;99.90;;;;;;4963093;28;20355;-72
2021/05/18 13:21:46;;;;;;;7.82;4.00;;;20.60;99.90;;;;;;4967702;28;20121;-72
2021/05/18 13:26:24;;;;;;;7.87;4.53;;;20.50;99.90;;;;;;4965789;28;20045;-72
2021/05/18 13:27:08;;;;;;;5.40;4.00;;;20.40;99.90;;;;;;4957403;28;20126;-72
2021/05/18 13:29:35;;;;;;;4.18;3.78;;;20.30;99.90;;;;;;4964402;28;20082;-73
2021/05/18 13:32:02;;;;;;;4.60;4.00;;;20.20;99.90;;;;;;4966891;28;20180;-73
2021/05/18 13:34:28;;;;;;;7.80;4.25;;;20.00;99.90;;;;;;4966954;28;20026;-72
2021/05/18 13:36:53;;;;;;;6.00;4.03;;;19.90;99.90;;;;;;4961971;28;20140;-72
2021/05/18 13:39:22;;;;;;;7.45;4.00;;;19.70;99.90;;;;;;4959900;28;20043;-72
2021/05/18 13:41:48;;;;;;;7.00;4.00;;;19.80;99.90;;;;;;4956698;28;20110;-72
2021/05/18 13:44:14;;;;;;;3.72;3.42;;;19.80;99.90;;;;;;4961557;28;20544;-72
2021/05/18 13:46:40;;;;;;;6.88;4.30;;;19.60;99.90;;;;;;4965454;28;20026;-72
2021/05/18 13:49:06;;;;;;;4.28;3.70;;;19.60;99.90;;;;;;4963528;28;20035;-72
2021/05/18 13:51:32;;;;;;;3.90;3.38;;;19.40;99.90;;;;;;4967397;28;20110;-72
2021/05/18 13:53:58;;;;;;;3.55;3.20;;;19.30;99.90;;;;;;4967756;28;20042;-72
2021/05/18 13:56:24;;;;;;;6.88;3.67;;;19.20;99.90;;;;;;4961167;28;20038;-72
2021/05/18 13:58:51;;;;;;;7.65;5.95;;;19.30;99.90;;;;;;4960669;28;20023;-72
2021/05/18 14:01:19;;;;;;;7.88;3.40;;;19.60;99.90;;;;;;4958900;28;20472;-71
2021/05/18 14:03:44;;;;;;;6.35;3.47;;;19.80;99.90;;;;;;4967212;28;20077;-72
2021/05/18 14:06:13;;;;;;;4.88;3.08;;;19.90;99.90;;;;;;4961676;28;20446;-73
2021/05/18 14:08:38;;;;;;;3.17;2.25;;;19.90;99.90;;;;;;4958441;28;20022;-73
2021/05/18 14:11:09;;;;;;;4.90;3.22;;;20.20;99.90;;;;;;4962073;28;20332;-72
2021/05/18 14:13:37;;;;;;;3.83;2.45;;;20.30;99.90;;;;;;4961155;28;20054;-73
2021/05/18 14:16:05;;;;;;;3.70;2.10;;;20.50;99.90;;;;;;4958360;28;20038;-73
2021/05/18 14:18:31;;;;;;;3.75;2.80;;;20.50;99.90;;;;;;4964152;28;20485;-73
2021/05/18 14:20:58;;;;;;;2.70;2.50;;;20.60;98.60;;;;;;4963745;28;20046;-72
2021/05/18 14:23:26;;;;;;;2.15;1.90;;;20.70;99.90;;;;;;4961199;28;20031;-72
2021/05/18 14:25:53;;;;;;;5.95;2.20;;;20.70;99.90;;;;;;4963956;28;20113;-73
2021/05/18 14:28:19;;;;;;;3.08;2.15;;;20.70;99.00;;;;;;4959421;28;20031;-72
2021/05/18 14:30:45;;;;;;;2.25;1.80;;;20.90;99.90;;;;;;4961022;28;20030;-73
2021/05/18 14:33:11;;;;;;;2.92;2.00;;;21.00;98.50;;;;;;4970498;28;20039;-73
2021/05/18 14:35:37;;;;;;;3.47;1.70;;;20.90;99.90;;;;;;4955756;28;20015;-73
2021/05/18 14:38:22;;;;;;;3.00;1.88;;;20.90;99.80;;;;;;4966867;28;20158;-72
2021/05/18 14:46:29;;;;;;;1.88;1.17;;;21.00;97.10;;;;;;4960583;28;20086;-73
2021/05/18 14:57:01;;;;;;;3.80;1.33;;;20.50;98.70;;;;;;4961217;28;20231;-73
2021/05/18 14:59:27;;;;;;;1.65;1.25;;;20.60;98.70;;;;;;4970966;28;20042;-73
2021/05/18 15:01:52;;;;;;;2.67;1.45;;;20.60;97.90;;;;;;4967728;28;20018;-73
2021/05/18 15:04:18;;;;;;;4.65;1.10;;;20.60;96.70;;;;;;4971932;28;20019;-78
2021/05/18 15:06:44;;;;;;;1.63;1.20;;;20.70;97.90;;;;;;4969309;28;20379;-73
2021/05/18 15:09:10;;;;;;;1.80;1.40;;;20.60;96.30;;;;;;4964047;28;20030;-73
2021/05/18 15:11:36;;;;;;;4.07;1.05;;;20.40;95.30;;;;;;4970294;28;20055;-72
2021/05/18 15:14:03;;;;;;;3.72;0.90;;;20.40;98.80;;;;;;4968518;28;20041;-73
2021/05/18 15:16:29;;;;;;;3.40;1.10;;;20.50;97.40;;;;;;4963357;28;20023;-73
2021/05/18 15:19:02;;;;;;;1.98;1.17;;;20.40;96.70;;;;;;4971545;28;20596;-72
2021/05/18 15:21:28;;;;;;;0.82;0.70;;;20.20;96.30;;;;;;4952848;28;20035;-73
2021/05/18 15:23:53;;;;;;;1.80;1.40;;;20.00;96.30;;;;;;4957167;28;20033;-73
2021/05/18 15:26:19;;;;;;;2.65;1.00;;;19.80;97.50;;;;;;4962588;28;20474;-73
2021/05/18 15:28:44;;;;;;;0.80;0.70;;;19.90;96.80;;;;;;4959107;28;20030;-72
2021/05/18 15:31:10;;;;;;;4.95;1.27;;;19.90;96.90;;;;;;4955202;28;20440;-72
2021/05/18 15:33:37;;;;;;;0.95;0.70;;;19.90;96.70;;;;;;4955365;28;20110;-71
2021/05/18 15:36:03;;;;;;;2.58;0.80;;;19.80;97.90;;;;;;4956558;28;20506;-72
2021/05/18 15:38:30;;;;;;;2.40;0.90;;;19.70;97.30;;;;;;4960330;28;20042;-74
2021/05/18 15:40:56;;;;;;;0.80;0.70;;;19.70;96.50;;;;;;4961790;28;20023;-75
2021/05/18 15:43:23;;;;;;;2.47;0.90;;;19.70;95.40;;;;;;4961732;28;20109;-74
2021/05/18 15:45:48;;;;;;;1.25;0.82;;;19.70;96.00;;;;;;4961017;28;20284;-73
2021/05/18 15:48:14;;;;;;;2.40;1.08;;;19.70;96.90;;;;;;4965519;28;20527;-73
2021/05/18 15:50:40;;;;;;;2.25;1.35;;;19.70;99.90;;;;;;4967028;28;20101;-73
2021/05/18 15:53:06;;;;;;;1.77;1.30;;;19.70;97.30;;;;;;4967364;28;20073;-73
2021/05/18 15:55:31;;;;;;;3.67;1.45;;;19.50;97.30;;;;;;4971436;28;20055;-72
2021/05/18 15:57:57;;;;;;;3.17;1.70;;;19.20;97.70;;;;;;4966708;28;20023;-73
2021/05/18 16:00:23;;;;;;;2.63;1.45;;;19.10;98.20;;;;;;4962481;28;20070;-73
2021/05/18 16:02:48;;;;;;;1.60;1.50;;;19.00;99.00;;;;;;4969557;28;20034;-73
2021/05/18 16:05:14;;;;;;;4.50;2.33;;;19.00;98.80;;;;;;4964163;28;20051;-73
2021/05/18 16:07:43;;;;;;;2.80;1.45;;;19.00;98.60;;;;;;4962858;28;20030;-73
2021/05/18 16:10:09;;;;;;;3.67;1.60;;;19.00;98.90;;;;;;4962937;28;20445;-74
2021/05/18 16:12:34;;;;;;;1.67;1.58;;;19.00;98.90;;;;;;4962725;28;20054;-73
2021/05/18 16:15:00;;;;;;;4.43;1.80;;;19.00;98.40;;;;;;4965641;28;20081;-74
2021/05/18 16:17:25;;;;;;;1.60;1.38;;;18.90;98.90;;;;;;4961386;28;20027;-73
2021/05/18 16:19:51;;;;;;;3.95;2.03;;;18.80;99.20;;;;;;4964445;28;20187;-73
2021/05/18 16:22:17;;;;;;;4.90;1.88;;;18.80;99.90;;;;;;4967670;28;20031;-73
2021/05/18 16:24:43;;;;;;;3.75;2.15;;;18.80;98.60;;;;;;4958786;28;20031;-75
2021/05/18 16:27:14;;;;;;;3.75;2.08;;;18.90;99.20;;;;;;4963750;28;20503;-74
2021/05/18 16:29:41;;;;;;;1.25;1.13;;;18.90;99.70;;;;;;4963074;28;20052;-74
2021/05/18 16:32:06;;;;;;;2.78;1.73;;;19.00;98.20;;;;;;4964524;28;20384;-75
2021/05/18 16:34:32;;;;;;;2.05;1.50;;;18.90;97.40;;;;;;4964310;28;20033;-77
2021/05/18 16:36:58;;;;;;;2.75;1.38;;;18.70;97.90;;;;;;4954548;28;20035;-74
2021/05/18 16:39:25;;;;;;;3.50;1.50;;;18.80;99.90;;;;;;4958179;28;20062;-74
2021/05/18 16:41:55;;;;;;;3.35;1.58;;;18.80;99.90;;;;;;4958928;28;20031;-77
2021/05/18 16:44:22;;;;;;;3.63;1.40;;;18.70;99.10;;;;;;4961152;28;20097;-76
2021/05/18 16:46:48;;;;;;;2.58;1.40;;;18.60;99.10;;;;;;4968824;28;20073;-74
2021/05/18 16:49:14;;;;;;;2.25;1.42;;;18.70;98.90;;;;;;4963541;28;20054;-76
2021/05/18 16:51:39;;;;;;;1.75;1.52;;;18.60;99.30;;;;;;4965852;28;20058;-75
2021/05/18 16:54:07;;;;;;;1.40;1.30;;;18.60;99.90;;;;;;4963621;28;20035;-75
2021/05/18 16:56:33;;;;;;;1.88;1.20;;;18.60;98.40;;;;;;4962072;28;20019;-75
2021/05/18 16:58:58;;;;;;;1.52;1.15;;;18.50;97.20;;;;;;4956923;28;20071;-76
2021/05/18 17:01:24;;;;;;;1.33;1.23;;;18.50;99.00;;;;;;4965268;28;20023;-75
2021/05/18 17:03:50;;;;;;;4.15;1.40;;;18.40;99.30;;;;;;4962368;28;20364;-76
2021/05/18 17:06:15;;;;;;;2.95;1.92;;;18.40;97.70;;;;;;4963227;28;20054;-76
2021/05/18 17:08:41;;;;;;;1.38;1.27;;;18.40;98.40;;;;;;4965037;28;20095;-78
2021/05/18 17:11:11;;;;;;;4.35;1.52;;;18.40;97.90;;;;;;4961797;28;20027;-76
2021/05/18 17:13:36;;;;;;;2.58;1.55;;;18.30;98.30;;;;;;4964218;28;20023;-76
2021/05/18 17:16:04;;;;;;;5.78;2.00;;;18.50;98.90;;;;;;4957873;28;20027;-75
2021/05/18 17:18:31;;;;;;;2.28;1.23;;;18.50;98.80;;;;;;4963611;28;20062;-76
2021/05/18 17:20:56;;;;;;;5.25;2.15;;;18.50;98.90;;;;;;4961324;28;20041;-74
2021/05/18 17:23:22;;;;;;;3.83;1.88;;;18.50;99.80;;;;;;4964623;28;20034;-74
2021/05/18 17:25:48;;;;;;;2.35;1.60;;;18.40;99.90;;;;;;4964823;28;20046;-74
2021/05/18 17:28:15;;;;;;;3.72;2.53;;;18.40;99.90;;;;;;4964037;28;20998;-74
2021/05/18 17:30:41;;;;;;;2.30;2.08;;;18.30;99.50;;;;;;4965179;28;20392;-73
2021/05/18 17:33:10;;;;;;;6.55;1.45;;;18.40;99.90;;;;;;4966517;28;20049;-73
2021/05/18 17:35:35;;;;;;;3.88;1.92;;;18.30;99.90;;;;;;4963621;28;20074;-74
2021/05/18 17:38:01;;;;;;;3.67;1.83;;;18.20;99.30;;;;;;4960016;28;20039;-73
2021/05/18 17:40:27;;;;;;;2.55;1.95;;;18.20;99.90;;;;;;4961667;28;20109;-73
2021/05/18 17:42:52;;;;;;;6.18;2.30;;;18.20;99.70;;;;;;4960486;28;20031;-73
2021/05/18 17:45:18;;;;;;;2.88;1.50;;;18.00;99.80;;;;;;4961914;28;20090;-73
2021/05/18 17:47:44;;;;;;;5.57;2.00;;;17.90;99.90;;;;;;4963473;28;20414;-73
2021/05/18 17:50:13;;;;;;;5.03;1.70;;;17.80;99.90;;;;;;4964053;28;20034;-73
2021/05/18 17:52:39;;;;;;;2.72;1.65;;;17.90;99.80;;;;;;4966230;28;20042;-73
2021/05/18 17:55:07;;;;;;;3.38;1.42;;;17.80;98.90;;;;;;4960276;28;20106;-73
2021/05/18 17:57:32;;;;;;;2.63;1.80;;;17.80;99.10;;;;;;4961414;28;20053;-73